createdAt,value
2023-04-16T00:02:03.144Z,94393.97
2023-04-16T00:04:30.106Z,94398.00
2023-04-16T00:06:56.979Z,94401.56
2023-04-16T00:09:23.862Z,94383.44
2023-04-16T00:11:50.764Z,94391.28
2023-04-16T00:14:17.661Z,94392.75
2023-04-16T00:16:44.592Z,94393.97
2023-04-16T00:19:11.658Z,94401.78
2023-04-16T00:21:39.012Z,94389.16
2023-04-16T00:24:05.849Z,94401.28
2023-04-16T00:26:32.815Z,94397.53
2023-04-16T00:29:01.208Z,94395.72
2023-04-16T00:31:33.281Z,94393.28
2023-04-16T00:34:09.722Z,94410.31
2023-04-16T00:36:36.843Z,94398.81
2023-04-16T00:39:03.776Z,94407.44
2023-04-16T00:41:30.695Z,94393.56
2023-04-16T00:43:57.555Z,94391.63
2023-04-16T00:46:25.382Z,94402.28
2023-04-16T00:48:54.457Z,94394.38
2023-04-16T00:51:21.852Z,94399.19
2023-04-16T00:53:49.285Z,94406.03
2023-04-16T00:56:17.661Z,94404.84
2023-04-16T00:58:45.030Z,94404.63
2023-04-16T01:01:12.054Z,94401.56
2023-04-16T01:03:44.247Z,94400.75
2023-04-16T01:06:11.964Z,94410.31
2023-04-16T01:08:39.126Z,94402.91
2023-04-16T01:11:06.517Z,94406.50
2023-04-16T01:13:33.926Z,94403.41
2023-04-16T01:16:01.826Z,94413.72
2023-04-16T01:18:28.768Z,94406.84
2023-04-16T01:20:55.610Z,94398.50
2023-04-16T01:23:22.806Z,94405.56
2023-04-16T01:25:49.636Z,94410.59
2023-04-16T01:28:16.715Z,94407.91
2023-04-16T01:30:43.872Z,94419.09
2023-04-16T01:33:15.268Z,94418.50
2023-04-16T01:35:42.359Z,94414.25
2023-04-16T01:38:11.050Z,94422.38
2023-04-16T01:40:38.462Z,94416.56
2023-04-16T01:43:05.413Z,94410.66
2023-04-16T01:45:33.712Z,94416.03
2023-04-16T01:48:00.921Z,94412.25
2023-04-16T01:50:28.375Z,94415.53
2023-04-16T01:52:55.208Z,94407.69
2023-04-16T01:55:22.061Z,94419.03
2023-04-16T01:57:48.887Z,94418.66
2023-04-16T02:00:16.170Z,94419.34
2023-04-16T02:02:43.140Z,94422.97
2023-04-16T02:05:10.057Z,94415.81
2023-04-16T02:07:36.893Z,94426.72
2023-04-16T02:10:05.464Z,94417.91
2023-04-16T02:12:32.320Z,94427.25
2023-04-16T02:15:00.290Z,94416.56
2023-04-16T02:17:27.216Z,94420.97
2023-04-16T02:19:54.205Z,94422.09
2023-04-16T02:22:21.058Z,94428.34
2023-04-16T02:24:47.914Z,94432.75
2023-04-16T02:27:14.743Z,94418.88
2023-04-16T02:29:41.588Z,94425.59
2023-04-16T02:32:08.615Z,94428.34
2023-04-16T02:34:35.701Z,94420.16
2023-04-16T02:37:02.559Z,94419.84
2023-04-16T02:39:29.379Z,94428.34
2023-04-16T02:41:56.416Z,94423.97
2023-04-16T02:44:23.282Z,94426.41
2023-04-16T02:46:50.096Z,94426.59
2023-04-16T02:49:16.922Z,94426.72
2023-04-16T02:51:43.735Z,94423.66
2023-04-16T02:54:10.800Z,94434.63
2023-04-16T02:56:37.639Z,94424.16
2023-04-16T02:59:04.566Z,94428.22
2023-04-16T03:01:31.466Z,94430.81
2023-04-16T03:03:58.370Z,94429.47
2023-04-16T03:06:26.363Z,94430.16
2023-04-16T03:08:53.251Z,94433.09
2023-04-16T03:11:20.576Z,94430.16
2023-04-16T03:13:47.458Z,94429.19
2023-04-16T03:16:14.352Z,94432.00
2023-04-16T03:18:41.286Z,94433.28
2023-04-16T03:21:08.139Z,94449.94
2023-04-16T03:23:36.007Z,94434.63
2023-04-16T03:26:02.884Z,94434.25
2023-04-16T03:28:29.780Z,94431.94
2023-04-16T03:30:56.758Z,94432.75
2023-04-16T03:33:23.707Z,94432.25
2023-04-16T03:35:59.718Z,94439.34
2023-04-16T03:38:26.854Z,94439.78
2023-04-16T03:40:53.773Z,94434.72
2023-04-16T03:43:20.850Z,94435.09
2023-04-16T03:45:47.867Z,94451.53
2023-04-16T03:48:16.091Z,94446.97
2023-04-16T03:50:47.675Z,94442.41
2023-04-16T03:53:15.077Z,94440.41
2023-04-16T03:55:42.502Z,94451.59
2023-04-16T03:58:09.607Z,94435.31
2023-04-16T04:00:36.492Z,94455.84
2023-04-16T04:03:03.582Z,94447.63
2023-04-16T04:05:30.836Z,94436.94
2023-04-16T04:07:57.676Z,94452.56
2023-04-16T04:10:24.528Z,94447.03
2023-04-16T04:12:51.357Z,94443.59
2023-04-16T04:15:18.354Z,94445.69
2023-04-16T04:17:45.318Z,94442.69
2023-04-16T04:20:12.667Z,94445.31
2023-04-16T04:22:39.470Z,94458.63
2023-04-16T04:25:06.787Z,94467.28
2023-04-16T04:27:33.602Z,94459.66
2023-04-16T04:30:00.602Z,94459.06
2023-04-16T04:32:27.484Z,94461.06
2023-04-16T04:34:54.355Z,94464.66
2023-04-16T04:37:21.252Z,94475.13
2023-04-16T04:39:48.287Z,94474.22
2023-04-16T04:42:18.435Z,94469.28
2023-04-16T04:44:46.216Z,94472.38
2023-04-16T04:47:13.445Z,94477.13
2023-04-16T04:49:40.760Z,94480.03
2023-04-16T04:52:08.603Z,94484.31
2023-04-16T04:54:35.562Z,94469.56
2023-04-16T04:57:05.195Z,94487.72
2023-04-16T04:59:32.030Z,94491.88
2023-04-16T05:01:59.813Z,94487.72
2023-04-16T05:04:26.691Z,94482.56
2023-04-16T05:06:53.494Z,94496.78
2023-04-16T05:09:20.347Z,94492.53
2023-04-16T05:11:47.210Z,94504.47
2023-04-16T05:14:14.126Z,94499.72
2023-04-16T05:16:40.962Z,94501.41
2023-04-16T05:19:08.340Z,94513.13
2023-04-16T05:21:35.639Z,94507.22
2023-04-16T05:24:02.498Z,94513.53
2023-04-16T05:26:29.387Z,94508.56
2023-04-16T05:28:56.190Z,94516.81
2023-04-16T05:31:23.236Z,94507.75
2023-04-16T05:33:50.117Z,94524.34
2023-04-16T05:36:17.189Z,94517.09
2023-04-16T05:38:44.007Z,94517.84
2023-04-16T05:41:10.916Z,94512.00
2023-04-16T05:43:37.791Z,94521.38
2023-04-16T05:46:04.817Z,94522.31
2023-04-16T05:48:31.749Z,94517.63
2023-04-16T05:50:58.590Z,94533.25
2023-04-16T05:53:25.586Z,94525.06
2023-04-16T05:55:52.426Z,94524.13
2023-04-16T05:58:19.230Z,94528.00
2023-04-16T06:00:46.113Z,94539.50
2023-04-16T06:03:13.145Z,94534.50
2023-04-16T06:05:40.334Z,94533.22
2023-04-16T06:08:07.208Z,94527.13
2023-04-16T06:10:34.105Z,94532.09
2023-04-16T06:13:00.917Z,94533.38
2023-04-16T06:15:27.714Z,94535.97
2023-04-16T06:17:55.856Z,94541.94
2023-04-16T06:20:22.741Z,94544.22
2023-04-16T06:22:49.850Z,94534.41
2023-04-16T06:25:18.199Z,94531.34
2023-04-16T06:27:45.153Z,94538.72
2023-04-16T06:30:15.824Z,94532.22
2023-04-16T06:32:44.657Z,94539.25
2023-04-16T06:35:11.824Z,94544.84
2023-04-16T06:37:39.039Z,94538.78
2023-04-16T06:40:06.630Z,94542.75
2023-04-16T06:42:33.537Z,94548.03
2023-04-16T06:45:01.520Z,94550.50
2023-04-16T06:47:30.124Z,94550.44
2023-04-16T06:49:57.220Z,94547.66
2023-04-16T06:52:24.118Z,94553.84
2023-04-16T06:54:51.018Z,94539.91
2023-04-16T06:57:20.376Z,94556.91
2023-04-16T06:59:47.275Z,94550.81
2023-04-16T07:02:14.360Z,94561.53
2023-04-16T07:04:42.574Z,94558.25
2023-04-16T07:07:09.440Z,94561.63
2023-04-16T07:09:36.786Z,94564.38
2023-04-16T07:12:03.736Z,94557.72
2023-04-16T07:14:30.654Z,94558.25
2023-04-16T07:16:57.709Z,94561.75
2023-04-16T07:19:24.688Z,94567.44
2023-04-16T07:21:51.548Z,94570.19
2023-04-16T07:24:18.479Z,94570.47
2023-04-16T07:26:45.320Z,94575.97
2023-04-16T07:29:12.400Z,94578.00
2023-04-16T07:31:39.449Z,94564.22
2023-04-16T07:34:06.333Z,94575.38
2023-04-16T07:36:33.578Z,94561.44
2023-04-16T07:39:00.463Z,94580.03
2023-04-16T07:41:29.664Z,94581.16
2023-04-16T07:43:56.535Z,94584.25
2023-04-16T07:46:25.020Z,94590.84
2023-04-16T07:48:53.336Z,94582.47
2023-04-16T07:51:20.196Z,94585.53
2023-04-16T07:53:47.032Z,94589.47
2023-04-16T07:56:13.891Z,94593.38
2023-04-16T07:58:40.721Z,94597.81
2023-04-16T08:01:07.541Z,94609.81
2023-04-16T08:03:34.668Z,94605.56
2023-04-16T08:06:01.756Z,94594.56
2023-04-16T08:08:29.700Z,94605.81
2023-04-16T08:10:56.517Z,94609.09
2023-04-16T08:13:24.194Z,94606.53
2023-04-16T08:15:51.147Z,94607.81
2023-04-16T08:18:19.136Z,94618.03
2023-04-16T08:20:46.006Z,94612.31
2023-04-16T08:23:12.913Z,94618.84
2023-04-16T08:25:39.769Z,94623.09
2023-04-16T08:28:06.611Z,94631.56
2023-04-16T08:30:33.740Z,94624.53
2023-04-16T08:33:00.677Z,94626.16
2023-04-16T08:35:27.764Z,94629.66
2023-04-16T08:37:54.794Z,94635.19
2023-04-16T08:40:22.053Z,94635.09
2023-04-16T08:43:00.978Z,94635.63
2023-04-16T08:45:28.130Z,94639.97
2023-04-16T08:47:55.001Z,94649.78
2023-04-16T08:50:26.801Z,94650.78
2023-04-16T08:52:59.908Z,94640.97
2023-04-16T08:55:50.572Z,94651.06
2023-04-16T08:58:23.017Z,94653.41
2023-04-16T09:00:50.154Z,94646.97
2023-04-16T09:03:17.221Z,94656.34
2023-04-16T09:05:44.493Z,94664.22
2023-04-16T09:08:11.586Z,94666.03
2023-04-16T09:10:38.562Z,94669.16
2023-04-16T09:13:05.493Z,94666.84
2023-04-16T09:15:34.004Z,94673.41
2023-04-16T09:18:02.008Z,94675.44
2023-04-16T09:20:28.998Z,94683.16
2023-04-16T09:22:57.270Z,94686.09
2023-04-16T09:25:25.421Z,94690.34
2023-04-16T09:27:52.510Z,94688.81
2023-04-16T09:30:27.442Z,94696.06
2023-04-16T09:33:22.622Z,94690.50
2023-04-16T09:35:52.164Z,94694.56
2023-04-16T09:38:20.298Z,94693.22
2023-04-16T09:40:49.875Z,94692.91
2023-04-16T09:43:18.561Z,94697.69
2023-04-16T09:45:55.444Z,94693.06
2023-04-16T09:49:34.362Z,94698.47
2023-04-16T09:52:02.589Z,94699.56
2023-04-16T09:54:30.199Z,94693.50
2023-04-16T09:56:58.034Z,94696.88
2023-04-16T09:59:25.576Z,94699.72
2023-04-16T10:02:14.595Z,94698.69
2023-04-16T10:04:49.717Z,94705.72
2023-04-16T10:07:17.057Z,94708.47
2023-04-16T10:09:44.400Z,94696.63
2023-04-16T10:12:13.030Z,94703.56
2023-04-16T10:14:40.387Z,94707.81
2023-04-16T10:17:11.156Z,94718.44
2023-04-16T10:19:38.586Z,94713.00
2023-04-16T10:22:05.899Z,94713.19
2023-04-16T10:24:35.114Z,94720.75
2023-04-16T10:27:02.042Z,94705.91
2023-04-16T10:29:31.740Z,94716.16
2023-04-16T10:31:59.248Z,94719.50
2023-04-16T10:34:26.842Z,94720.41
2023-04-16T10:36:55.527Z,94725.03
2023-04-16T10:39:24.725Z,94719.88
2023-04-16T10:42:08.717Z,94724.28
2023-04-16T10:44:36.295Z,94718.69
2023-04-16T10:47:03.482Z,94715.91
2023-04-16T10:49:30.363Z,94716.44
2023-04-16T10:52:08.656Z,94715.69
2023-04-16T10:54:36.560Z,94711.09
2023-04-16T10:57:06.189Z,94700.19
2023-04-16T10:59:38.749Z,94716.75
2023-04-16T11:02:14.367Z,94713.56
2023-04-16T11:04:45.789Z,94713.00
2023-04-16T11:07:15.817Z,94717.56
2023-04-16T11:09:51.459Z,94720.72
2023-04-16T11:12:31.410Z,94713.19
2023-04-16T11:15:14.292Z,94715.78
2023-04-16T11:17:50.766Z,94713.19
2023-04-16T11:20:25.975Z,94713.13
2023-04-16T11:22:57.813Z,94715.59
2023-04-16T11:25:34.315Z,94722.19
2023-04-16T11:28:02.756Z,94727.50
2023-04-16T11:30:34.106Z,94720.19
2023-04-16T11:33:11.956Z,94706.75
2023-04-16T11:35:39.798Z,94726.38
2023-04-16T11:38:07.610Z,94722.06
2023-04-16T11:40:36.523Z,94738.44
2023-04-16T11:43:13.654Z,94726.00
2023-04-16T11:46:02.634Z,94728.72
2023-04-16T11:48:54.602Z,94737.94
2023-04-16T11:51:23.514Z,94737.63
2023-04-16T11:53:54.592Z,94740.84
2023-04-16T11:56:35.058Z,94744.16
2023-04-16T11:59:13.202Z,94742.28
2023-04-16T12:01:42.651Z,94742.66
2023-04-16T12:04:09.928Z,94743.25
2023-04-16T12:06:37.245Z,94744.13
2023-04-16T12:09:39.516Z,94745.59
2023-04-16T12:12:26.417Z,94752.66
2023-04-16T12:14:54.646Z,94759.56
2023-04-16T12:17:21.801Z,94751.13
2023-04-16T12:19:52.073Z,94751.72
2023-04-16T12:22:36.853Z,94759.13
2023-04-16T12:25:16.077Z,94750.81
2023-04-16T12:27:53.482Z,94757.63
2023-04-16T12:30:23.262Z,94758.13
2023-04-16T12:32:53.612Z,94754.72
2023-04-16T12:35:32.146Z,94759.66
2023-04-16T12:38:00.374Z,94762.50
2023-04-16T12:40:27.718Z,94767.22
2023-04-16T12:42:55.097Z,94754.94
2023-04-16T12:45:22.428Z,94761.16
2023-04-16T12:47:50.646Z,94768.13
2023-04-16T12:50:18.150Z,94758.38
2023-04-16T12:52:45.021Z,94759.13
2023-04-16T12:55:14.161Z,94761.50
2023-04-16T12:57:41.671Z,94761.81
2023-04-16T13:00:10.820Z,94751.25
2023-04-16T13:02:37.959Z,94768.19
2023-04-16T13:05:05.482Z,94758.69
2023-04-16T13:07:34.176Z,94762.03
2023-04-16T13:10:01.297Z,94751.72
2023-04-16T13:12:28.658Z,94751.22
2023-04-16T13:14:58.390Z,94748.63
2023-04-16T13:17:25.239Z,94754.47
2023-04-16T13:19:52.145Z,94752.22
2023-04-16T13:22:19.034Z,94755.00
2023-04-16T13:24:46.492Z,94761.88
2023-04-16T13:27:15.348Z,94746.00
2023-04-16T13:29:42.185Z,94762.31
2023-04-16T13:32:09.145Z,94762.34
2023-04-16T13:34:36.043Z,94763.94
2023-04-16T13:37:02.878Z,94762.72
2023-04-16T13:39:29.738Z,94761.31
2023-04-16T13:41:56.561Z,94764.94
2023-04-16T13:44:23.357Z,94762.47
2023-04-16T13:46:50.318Z,94755.22
2023-04-16T13:49:17.240Z,94763.47
2023-04-16T13:51:44.997Z,94764.03
2023-04-16T13:54:11.976Z,94757.47
2023-04-16T13:56:39.386Z,94766.91
2023-04-16T13:59:06.327Z,94763.53
2023-04-16T14:01:33.267Z,94759.00
2023-04-16T14:04:06.398Z,94746.25
2023-04-16T14:06:34.722Z,94755.78
2023-04-16T14:09:02.048Z,94759.59
2023-04-16T14:11:28.991Z,94760.44
2023-04-16T14:13:56.091Z,94750.25
2023-04-16T14:16:23.185Z,94754.88
2023-04-16T14:18:52.154Z,94761.25
2023-04-16T14:21:19.427Z,94756.88
2023-04-16T14:23:46.930Z,94757.19
2023-04-16T14:26:13.954Z,94747.72
2023-04-16T14:28:41.612Z,94766.47
2023-04-16T14:31:08.600Z,94759.13
2023-04-16T14:33:35.508Z,94749.72
2023-04-16T14:36:03.336Z,94762.69
2023-04-16T14:38:31.460Z,94754.00
2023-04-16T14:40:58.487Z,94755.06
2023-04-16T14:43:25.406Z,94757.63
2023-04-16T14:45:52.933Z,94750.91
2023-04-16T14:48:19.869Z,94758.91
2023-04-16T14:50:46.794Z,94760.44
2023-04-16T14:53:13.667Z,94749.59
2023-04-16T14:55:40.494Z,94755.34
2023-04-16T14:58:07.345Z,94767.16
2023-04-16T15:00:36.845Z,94763.06
2023-04-16T15:03:04.118Z,94764.06
2023-04-16T15:05:31.957Z,94761.66
2023-04-16T15:07:58.900Z,94755.53
2023-04-16T15:10:25.792Z,94756.78
2023-04-16T15:12:52.595Z,94758.81
2023-04-16T15:15:19.751Z,94765.88
2023-04-16T15:17:46.651Z,94764.56
2023-04-16T15:20:13.902Z,94767.56
2023-04-16T15:22:40.828Z,94775.97
2023-04-16T15:25:08.713Z,94778.00
2023-04-16T15:27:35.637Z,94762.88
2023-04-16T15:30:02.681Z,94769.47
2023-04-16T15:32:29.622Z,94771.31
2023-04-16T15:34:56.479Z,94763.78
2023-04-16T15:37:24.149Z,94763.28
2023-04-16T15:39:51.029Z,94781.34
2023-04-16T15:42:17.935Z,94772.31
2023-04-16T15:44:44.784Z,94765.25
2023-04-16T15:47:11.617Z,94770.47
2023-04-16T15:49:38.493Z,94781.16
2023-04-16T15:52:05.355Z,94782.50
2023-04-16T15:54:32.382Z,94774.91
2023-04-16T15:56:59.502Z,94786.25
2023-04-16T15:59:27.053Z,94773.47
2023-04-16T16:01:53.990Z,94782.28
2023-04-16T16:04:23.275Z,94775.19
2023-04-16T16:06:50.958Z,94776.53
2023-04-16T16:09:18.818Z,94779.16
2023-04-16T16:11:45.814Z,94781.97
2023-04-16T16:14:15.308Z,94783.56
2023-04-16T16:16:43.156Z,94777.94
2023-04-16T16:19:10.214Z,94782.63
2023-04-16T16:21:37.861Z,94781.97
2023-04-16T16:24:04.777Z,94786.25
2023-04-16T16:26:31.604Z,94788.41
2023-04-16T16:28:58.477Z,94781.81
2023-04-16T16:31:25.622Z,94792.66
2023-04-16T16:33:52.699Z,94775.25
2023-04-16T16:36:19.615Z,94777.66
2023-04-16T16:38:47.562Z,94774.72
2023-04-16T16:41:14.486Z,94780.81
2023-04-16T16:43:41.497Z,94793.25
2023-04-16T16:46:10.058Z,94786.97
2023-04-16T16:48:37.015Z,94793.13
2023-04-16T16:51:03.984Z,94787.88
2023-04-16T16:53:30.786Z,94780.41
2023-04-16T16:55:57.623Z,94790.78
2023-04-16T16:58:24.537Z,94787.28
2023-04-16T17:00:51.401Z,94803.34
2023-04-16T17:03:18.502Z,94796.13
2023-04-16T17:05:45.542Z,94788.75
2023-04-16T17:08:12.563Z,94797.94
2023-04-16T17:10:39.378Z,94789.75
2023-04-16T17:13:06.245Z,94790.88
2023-04-16T17:15:33.250Z,94797.19
2023-04-16T17:18:00.241Z,94783.31
2023-04-16T17:20:27.144Z,94799.44
2023-04-16T17:22:54.233Z,94799.09
2023-04-16T17:25:21.322Z,94804.53
2023-04-16T17:27:48.174Z,94791.22
2023-04-16T17:30:15.221Z,94793.25
2023-04-16T17:32:42.118Z,94811.91
2023-04-16T17:35:10.246Z,94805.91
2023-04-16T17:37:37.102Z,94809.88
2023-04-16T17:40:07.708Z,94806.25
2023-04-16T17:42:35.897Z,94809.88
2023-04-16T17:45:03.666Z,94806.53
2023-04-16T17:47:30.729Z,94813.78
2023-04-16T17:49:57.614Z,94808.16
2023-04-16T17:52:24.445Z,94819.97
2023-04-16T17:54:53.300Z,94814.06
2023-04-16T17:57:20.130Z,94820.66
2023-04-16T17:59:47.011Z,94808.50
2023-04-16T18:02:13.913Z,94810.81
2023-04-16T18:04:40.984Z,94819.56
2023-04-16T18:07:08.003Z,94813.81
2023-04-16T18:09:34.821Z,94819.94
2023-04-16T18:12:01.694Z,94824.06
2023-04-16T18:14:28.923Z,94821.16
2023-04-16T18:16:56.034Z,94813.56
2023-04-16T18:19:22.874Z,94829.19
2023-04-16T18:21:49.697Z,94828.25
2023-04-16T18:24:16.496Z,94831.25
2023-04-16T18:26:46.257Z,94829.00
2023-04-16T18:29:14.337Z,94833.19
2023-04-16T18:31:42.003Z,94831.81
2023-04-16T18:34:09.121Z,94839.00
2023-04-16T18:36:35.975Z,94838.19
2023-04-16T18:39:02.979Z,94843.28
2023-04-16T18:41:31.379Z,94847.19
2023-04-16T18:43:58.397Z,94842.91
2023-04-16T18:46:25.556Z,94844.84
2023-04-16T18:48:52.511Z,94846.66
2023-04-16T18:51:19.350Z,94849.13
2023-04-16T18:53:46.287Z,94847.78
2023-04-16T18:56:13.204Z,94843.91
2023-04-16T18:58:40.130Z,94841.56
2023-04-16T19:01:11.407Z,94846.81
2023-04-16T19:03:38.698Z,94850.91
2023-04-16T19:06:06.457Z,94855.94
2023-04-16T19:08:33.274Z,94851.69
2023-04-16T19:11:00.225Z,94856.59
2023-04-16T19:13:27.153Z,94857.88
2023-04-16T19:16:02.881Z,94854.31
2023-04-16T19:18:29.816Z,94859.97
2023-04-16T19:21:00.967Z,94863.66
2023-04-16T19:23:28.520Z,94864.06
2023-04-16T19:25:59.359Z,94858.75
2023-04-16T19:28:26.510Z,94861.84
2023-04-16T19:30:54.523Z,94871.19
2023-04-16T19:33:21.626Z,94864.84
2023-04-16T19:35:48.482Z,94862.44
2023-04-16T19:38:15.809Z,94861.47
2023-04-16T19:40:46.911Z,94864.78
2023-04-16T19:43:14.137Z,94868.38
2023-04-16T19:45:48.287Z,94863.78
2023-04-16T19:48:15.152Z,94854.38
2023-04-16T19:50:42.951Z,94855.41
2023-04-16T19:53:11.022Z,94862.00
2023-04-16T19:55:41.664Z,94861.78
2023-04-16T19:58:09.308Z,94857.66
2023-04-16T20:00:43.331Z,94858.47
2023-04-16T20:03:11.175Z,94859.97
2023-04-16T20:05:38.162Z,94864.06
2023-04-16T20:08:05.528Z,94858.56
2023-04-16T20:10:32.316Z,94861.78
2023-04-16T20:12:59.502Z,94850.09
2023-04-16T20:15:26.514Z,94860.13
2023-04-16T20:17:53.599Z,94863.19
2023-04-16T20:20:22.776Z,94862.06
2023-04-16T20:22:49.694Z,94863.72
2023-04-16T20:25:19.220Z,94853.53
2023-04-16T20:27:46.517Z,94858.47
2023-04-16T20:30:14.258Z,94860.13
2023-04-16T20:32:41.228Z,94851.75
2023-04-16T20:35:11.062Z,94860.97
2023-04-16T20:37:39.086Z,94860.97
2023-04-16T20:40:15.180Z,94866.69
2023-04-16T20:42:46.469Z,94861.91
2023-04-16T20:45:13.462Z,94859.16
2023-04-16T20:47:40.401Z,94860.13
2023-04-16T20:50:08.220Z,94860.66
2023-04-16T20:52:35.036Z,94854.38
2023-04-16T20:55:01.886Z,94853.25
2023-04-16T20:57:29.945Z,94852.44
2023-04-16T20:59:56.775Z,94856.22
2023-04-16T21:02:24.511Z,94844.69
2023-04-16T21:04:51.775Z,94848.97
2023-04-16T21:07:18.739Z,94844.69
2023-04-16T21:09:45.689Z,94845.06
2023-04-16T21:12:12.532Z,94853.09
2023-04-16T21:14:39.334Z,94847.31
2023-04-16T21:17:06.173Z,94847.00
2023-04-16T21:19:32.986Z,94844.03
2023-04-16T21:21:59.843Z,94839.75
2023-04-16T21:24:26.754Z,94849.13
2023-04-16T21:26:53.644Z,94847.09
2023-04-16T21:29:20.446Z,94840.81
2023-04-16T21:31:47.597Z,94843.88
2023-04-16T21:34:14.565Z,94846.34
2023-04-16T21:36:41.371Z,94839.59
2023-04-16T21:39:08.247Z,94851.56
2023-04-16T21:41:35.154Z,94847.00
2023-04-16T21:44:01.991Z,94841.63
2023-04-16T21:46:29.536Z,94843.03
2023-04-16T21:48:56.557Z,94843.88
2023-04-16T21:51:29.563Z,94845.66
2023-04-16T21:53:57.233Z,94849.94
2023-04-16T21:56:25.194Z,94852.44
2023-04-16T21:58:52.027Z,94845.53
2023-04-16T22:01:18.987Z,94836.53
2023-04-16T22:03:50.960Z,94842.63
2023-04-16T22:06:18.554Z,94841.78
2023-04-16T22:08:45.469Z,94844.25
2023-04-16T22:11:12.351Z,94841.69
2023-04-16T22:13:42.238Z,94845.97
2023-04-16T22:16:11.531Z,94844.38
2023-04-16T22:18:38.940Z,94838.13
2023-04-16T22:21:05.973Z,94835.34
2023-04-16T22:23:32.879Z,94829.72
2023-04-16T22:25:59.698Z,94825.63
2023-04-16T22:28:26.498Z,94839.00
2023-04-16T22:30:53.394Z,94832.63
2023-04-16T22:33:20.511Z,94833.47
2023-04-16T22:35:47.390Z,94827.56
2023-04-16T22:38:14.395Z,94837.00
2023-04-16T22:40:41.245Z,94825.09
2023-04-16T22:43:08.102Z,94829.88
2023-04-16T22:45:34.930Z,94823.00
2023-04-16T22:48:01.840Z,94824.75
2023-04-16T22:50:31.398Z,94826.28
2023-04-16T22:52:58.421Z,94820.97
2023-04-16T22:55:25.704Z,94824.94
2023-04-16T22:57:52.520Z,94825.91
2023-04-16T23:00:19.516Z,94824.09
2023-04-16T23:02:46.500Z,94834.28
2023-04-16T23:05:13.495Z,94822.00
2023-04-16T23:07:40.648Z,94837.44
2023-04-16T23:10:08.815Z,94823.94
2023-04-16T23:12:38.852Z,94830.84
2023-04-16T23:15:07.052Z,94824.63
2023-04-16T23:17:35.313Z,94823.28
2023-04-16T23:20:03.208Z,94829.59
2023-04-16T23:22:30.094Z,94831.13
2023-04-16T23:24:57.118Z,94830.47
2023-04-16T23:27:24.067Z,94823.88
2023-04-16T23:29:50.928Z,94822.06
2023-04-16T23:32:17.940Z,94820.44
2023-04-16T23:34:44.845Z,94825.22
2023-04-16T23:37:12.101Z,94819.03
2023-04-16T23:39:38.971Z,94819.31
2023-04-16T23:42:06.082Z,94815.34
2023-04-16T23:44:32.973Z,94816.16
2023-04-16T23:46:59.958Z,94810.63
2023-04-16T23:49:26.855Z,94814.22
2023-04-16T23:51:53.726Z,94817.69
2023-04-16T23:54:21.598Z,94815.56
2023-04-16T23:56:48.894Z,94816.41
2023-04-16T23:59:16.899Z,94811.44
